Aeroporto :
LOGIN :

Iscrizione | Disclaimer

   EN    FR    IT 

 










Sommario :    VFR   VFR Marginale   IFR   IFR Intensivo   IFR Molto Intensivo
Visibilità : 
Base nubi : 
>= 8 km
>= 3000ft
5 / 8 km
1000 / 3000 ft
1500m / 5 km
500 / 1000 ft
800 / 1500m
200 / 500 ft
< 800m
< 200 ft
Simboli :   Temporali  Nebbia  Neve Forte  Precipitazioni Forti  Vento > 20 kt
SIGMETs :   Varie  Temporali  Ghiacco  Turbolenza  Onda orograficha  Ceneri Vulcaniche






- Altitudine del aeroporto : 464 ft
- Codice IATA : EVX


LFOE - Evreux

ULTIMO METAR :
  • 291130Z AUTO 20009KT 170V240 9999 BKN037 OVC070 21/12 Q1014 NOSIG

METARs OBSOLETI :
  • 291100Z AUTO 21009KT 9999 FEW035 OVC070 21/12 Q1014 NOSIG
  • 291030Z AUTO 22010KT 190V260 9999 SCT035 OVC078 21/12 Q1014 NOSIG
  • 291000Z AUTO 22009KT 180V250 9999 FEW034 BKN080 OVC100 20/12 Q1015 NOSIG
  • 290930Z AUTO 21010KT 170V260 9999 SCT034 SCT076 BKN100 20/11 Q1015 NOSIG
  • 290900Z AUTO 21010KT 180V240 9999 FEW032 BKN096 20/12 Q1015 NOSIG

TAF TAF LFOE
Valido dal 29 a 09 ore il 30 a 09 ore UTC


290800Z 2909/3009 22010KT CAVOK
BECMG 2913/2915 29010G20KT
BECMG 2917/2919 23006KT 4000 -RA BKN045
BECMG 2921/2922 9999 NSW
TEMPO 3005/3008 SCT008



MetMap, La meteo Aeronautica in un colpo d'occhio ! - Copyright ORBIFLY Dicembre 2007 - Disclaimer

ORBIFLY MET'MAP TEAM :

Programmazione e sviluppo : Alexandra Zaïnal
Concezione : Baudouin d'Aumeries
Supporto tecnico e logistico : Manuel Goepfert
Aiuto : Marc-Olivier Méhu
Aiuto per la traduzione : Arnaldo La Scala




FONTI E CREDITI :

   NOAA